Time;durP1;ratioP1;P1;durP2;ratioP2;P2;SDS_P1;SDS_P2;PMS_P1;PMS_P2;Temp;Humidity;BMP_temperature;BMP_pressure;BME280_temperature;BME280_humidity;BME280_pressure;Samples;Min_cycle;Max_cycle;Signal;HPM_P1;HPM_P2
2024/03/15 06:52:48;;;;;;;3.65;2.42;;;;;;;;;;10456186;28;20756;-85
2024/03/15 06:57:51;;;;;;;6.60;3.50;;;;;;;;;;10378438;28;20037;-84
2024/03/15 07:02:52;;;;;;;5.20;2.80;;;;;;;;;;10364275;28;20117;-84
2024/03/15 07:07:53;;;;;;;;;;;;;;;;;;10387556;28;20027;-83
2024/03/15 07:12:56;;;;;;;3.72;2.40;;;;;;;;;;10381784;28;19925;-83
2024/03/15 07:18:04;;;;;;;5.35;2.75;;;;;;;;;;10379303;28;20018;-83
2024/03/15 07:23:06;;;;;;;4.25;2.22;;;;;;;;;;10359176;28;20037;-83
2024/03/15 07:28:09;;;;;;;7.88;3.80;;;;;;;;;;10378932;28;20049;-83
2024/03/15 07:33:10;;;;;;;4.30;2.25;;;;;;;;;;10389891;23;20034;-79
2024/03/15 07:38:11;;;;;;;;;;;;;;;;;;10292193;28;20047;-79
2024/03/15 07:43:12;;;;;;;3.25;2.20;;;;;;;;;;10293612;28;19906;-79
2024/03/15 07:48:13;;;;;;;4.82;2.67;;;;;;;;;;10313856;28;20130;-79
2024/03/15 07:53:15;;;;;;;6.85;2.90;;;;;;;;;;10306246;28;20527;-79
2024/03/15 07:58:16;;;;;;;2.45;1.80;;;;;;;;;;10305759;28;20484;-79
2024/03/15 08:03:18;;;;;;;3.28;1.90;;;;;;;;;;10287950;28;20035;-79
2024/03/15 08:08:19;;;;;;;3.13;2.05;;;;;;;;;;10290736;28;20515;-81
2024/03/15 08:13:25;;;;;;;2.75;1.77;;;;;;;;;;10297302;28;20117;-83
2024/03/15 08:18:27;;;;;;;3.22;1.90;;;;;;;;;;10314478;28;20027;-82
2024/03/15 08:23:28;;;;;;;3.45;1.70;;;;;;;;;;10314826;28;20038;-82
2024/03/15 08:28:30;;;;;;;5.13;2.20;;;;;;;;;;10294183;28;20077;-82
2024/03/15 08:33:31;;;;;;;4.85;3.17;;;;;;;;;;10322476;28;20125;-82
2024/03/15 08:38:32;;;;;;;4.18;2.28;;;;;;;;;;10306758;28;20105;-81
2024/03/15 08:43:34;;;;;;;5.00;2.65;;;;;;;;;;10304465;28;20030;-83
2024/03/15 08:48:35;;;;;;;3.17;2.70;;;;;;;;;;10301053;28;20054;-82
2024/03/15 08:53:36;;;;;;;4.85;2.38;;;;;;;;;;10285422;28;20029;-82
2024/03/15 08:58:37;;;;;;;3.15;2.10;;;;;;;;;;10305269;28;20109;-82
2024/03/15 09:03:39;;;;;;;3.42;2.25;;;;;;;;;;10284741;28;20175;-82
2024/03/15 09:08:41;;;;;;;3.75;2.78;;;;;;;;;;10284038;28;20356;-82
2024/03/15 09:13:42;;;;;;;5.90;4.07;;;;;;;;;;10303201;28;20063;-83
2024/03/15 09:18:43;;;;;;;6.07;3.67;;;;;;;;;;10304173;28;20027;-83
2024/03/15 09:23:45;;;;;;;5.22;3.30;;;;;;;;;;10285805;28;20037;-82
2024/03/15 09:28:49;;;;;;;4.53;3.70;;;;;;;;;;10303797;28;20095;-82
2024/03/15 09:33:50;;;;;;;4.53;3.22;;;;;;;;;;10308859;28;20041;-81
2024/03/15 09:38:54;;;;;;;5.25;3.95;;;;;;;;;;10323420;28;20086;-81
2024/03/15 09:43:55;;;;;;;4.18;3.05;;;;;;;;;;10303652;28;20027;-81
2024/03/15 09:48:56;;;;;;;7.43;3.90;;;;;;;;;;10313992;28;20031;-81
2024/03/15 09:53:58;;;;;;;4.82;3.75;;;;;;;;;;10286732;28;20030;-79
2024/03/15 09:58:59;;;;;;;6.20;5.05;;;;;;;;;;10302395;28;20113;-80
2024/03/15 10:04:00;;;;;;;4.80;3.20;;;;;;;;;;10303425;28;20046;-80
2024/03/15 10:09:03;;;;;;;3.00;2.35;;;;;;;;;;10283952;28;20054;-80
2024/03/15 10:14:04;;;;;;;22.08;17.60;;;;;;;;;;10283060;28;20092;-82
2024/03/15 10:19:13;;;;;;;6.47;3.25;;;;;;;;;;10300904;28;20106;-81
2024/03/15 10:24:14;;;;;;;12.85;7.80;;;;;;;;;;10300685;28;20464;-81
2024/03/15 10:29:15;;;;;;;7.53;3.28;;;;;;;;;;10288692;28;20070;-82
2024/03/15 10:34:16;;;;;;;3.88;2.65;;;;;;;;;;10298182;28;20038;-81
2024/03/15 10:39:20;;;;;;;3.67;2.50;;;;;;;;;;10320011;28;20046;-82
2024/03/15 10:44:21;;;;;;;3.63;2.28;;;;;;;;;;10319330;28;20098;-83
2024/03/15 10:49:23;;;;;;;3.53;1.92;;;;;;;;;;10321878;28;20035;-82
2024/03/15 10:54:24;;;;;;;3.92;2.20;;;;;;;;;;10299628;28;20105;-83
2024/03/15 10:59:25;;;;;;;3.90;2.67;;;;;;;;;;10302833;28;20105;-81
2024/03/15 11:04:26;;;;;;;3.80;2.65;;;;;;;;;;10294857;28;20467;-81
2024/03/15 11:09:28;;;;;;;3.42;2.20;;;;;;;;;;10292470;28;20049;-81
2024/03/15 11:14:35;;;;;;;3.60;2.00;;;;;;;;;;10300839;28;20109;-82
2024/03/15 11:19:47;;;;;;;5.25;2.30;;;;;;;;;;10281715;28;20034;-81
2024/03/15 11:24:48;;;;;;;4.30;1.98;;;;;;;;;;10283160;28;20375;-81
2024/03/15 11:29:56;;;;;;;3.00;1.60;;;;;;;;;;10307008;28;20019;-81
2024/03/15 11:34:57;;;;;;;2.13;1.60;;;;;;;;;;10290361;28;20031;-82
2024/03/15 11:39:59;;;;;;;4.53;1.95;;;;;;;;;;10306969;28;20038;-81
2024/03/15 11:45:01;;;;;;;3.28;2.13;;;;;;;;;;10306292;28;20051;-80
2024/03/15 11:50:03;;;;;;;4.28;2.60;;;;;;;;;;10300912;28;20037;-81
2024/03/15 11:55:06;;;;;;;3.65;2.00;;;;;;;;;;10291132;28;20031;-81
2024/03/15 12:00:11;;;;;;;5.32;3.45;;;;;;;;;;10293325;28;20050;-80
2024/03/15 12:05:13;;;;;;;3.33;1.88;;;;;;;;;;10317396;28;20026;-81
2024/03/15 12:10:14;;;;;;;4.38;2.35;;;;;;;;;;10318592;28;20046;-81
2024/03/15 12:15:28;;;;;;;5.05;2.53;;;;;;;;;;10304098;28;20496;-79
2024/03/15 12:20:30;;;;;;;3.17;1.73;;;;;;;;;;10317437;28;20039;-80
2024/03/15 12:25:31;;;;;;;5.05;2.03;;;;;;;;;;10305845;28;20129;-80
2024/03/15 12:30:33;;;;;;;5.78;2.17;;;;;;;;;;10286598;28;20128;-80
2024/03/15 12:35:34;;;;;;;3.42;1.80;;;;;;;;;;10285696;28;20034;-81
2024/03/15 12:40:35;;;;;;;4.13;2.20;;;;;;;;;;10287511;28;20475;-80
2024/03/15 12:45:40;;;;;;;5.75;2.03;;;;;;;;;;10304475;28;20097;-79
2024/03/15 12:50:41;;;;;;;5.25;2.65;;;;;;;;;;10312030;28;20026;-79
2024/03/15 12:55:42;;;;;;;4.38;2.22;;;;;;;;;;10289332;28;20058;-80
2024/03/15 13:00:44;;;;;;;2.85;1.80;;;;;;;;;;10303714;28;20046;-79
2024/03/15 13:05:45;;;;;;;4.50;2.33;;;;;;;;;;10300632;28;20027;-80
2024/03/15 13:10:46;;;;;;;3.25;2.00;;;;;;;;;;10301905;28;20122;-80
2024/03/15 13:15:47;;;;;;;2.85;2.05;;;;;;;;;;10285374;28;20037;-80
2024/03/15 13:20:48;;;;;;;3.75;1.80;;;;;;;;;;10284892;28;20033;-80
2024/03/15 13:25:52;;;;;;;3.47;2.30;;;;;;;;;;10302601;28;20023;-80
2024/03/15 13:30:53;;;;;;;3.83;1.95;;;;;;;;;;10309700;28;20023;-81
2024/03/15 13:35:54;;;;;;;2.78;1.40;;;;;;;;;;10315969;28;20038;-81
2024/03/15 13:40:55;;;;;;;2.85;1.30;;;;;;;;;;10315998;28;20029;-78
2024/03/15 13:45:57;;;;;;;3.85;1.50;;;;;;;;;;10315021;28;20033;-79
2024/03/15 13:50:58;;;;;;;2.33;1.50;;;;;;;;;;10301497;28;20023;-78
2024/03/15 13:55:59;;;;;;;3.33;1.42;;;;;;;;;;10303536;28;20490;-78
2024/03/15 14:01:00;;;;;;;2.53;1.38;;;;;;;;;;10303817;28;20027;-78
2024/03/15 14:06:03;;;;;;;3.33;1.48;;;;;;;;;;10305692;28;20023;-78
2024/03/15 14:11:07;;;;;;;4.45;1.70;;;;;;;;;;10306039;28;20026;-78
2024/03/15 14:16:08;;;;;;;2.85;1.27;;;;;;;;;;10300265;28;20085;-78
2024/03/15 14:21:09;;;;;;;3.22;1.13;;;;;;;;;;10287688;28;20132;-78
2024/03/15 14:26:11;;;;;;;3.08;1.60;;;;;;;;;;10306434;28;20034;-78
2024/03/15 14:31:12;;;;;;;2.83;1.45;;;;;;;;;;10311563;28;20094;-77
2024/03/15 14:36:13;;;;;;;3.33;1.48;;;;;;;;;;10328558;28;20033;-78
2024/03/15 14:41:16;;;;;;;3.42;1.55;;;;;;;;;;10327065;28;20038;-77
2024/03/15 14:46:18;;;;;;;2.10;1.20;;;;;;;;;;10298067;28;20405;-78
2024/03/15 14:51:20;;;;;;;2.22;1.27;;;;;;;;;;10291091;28;20119;-78
2024/03/15 14:56:21;;;;;;;3.90;1.60;;;;;;;;;;10293099;28;20505;-78
2024/03/15 15:01:23;;;;;;;3.22;1.30;;;;;;;;;;10313248;28;20031;-77
2024/03/15 15:06:24;;;;;;;5.47;1.75;;;;;;;;;;10292126;28;20023;-78
2024/03/15 15:11:25;;;;;;;3.45;1.60;;;;;;;;;;10314794;28;20030;-78
2024/03/15 15:16:26;;;;;;;4.05;1.40;;;;;;;;;;10314192;28;20082;-77
2024/03/15 15:21:27;;;;;;;3.70;1.80;;;;;;;;;;10317988;28;20053;-77
2024/03/15 15:26:28;;;;;;;2.17;1.35;;;;;;;;;;10295082;28;20015;-77
2024/03/15 15:31:31;;;;;;;3.08;1.40;;;;;;;;;;10309291;28;20095;-78
2024/03/15 15:36:32;;;;;;;3.05;1.38;;;;;;;;;;10290380;28;20090;-77
2024/03/15 15:41:33;;;;;;;2.17;1.20;;;;;;;;;;10308998;28;20030;-77
2024/03/15 15:46:55;;;;;;;3.08;1.27;;;;;;;;;;10312571;28;20047;-78
2024/03/15 15:51:55;;;;;;;3.67;1.30;;;;;;;;;;10317530;28;20062;-77
2024/03/15 15:56:56;;;;;;;1.73;1.10;;;;;;;;;;10314055;28;20047;-78
2024/03/15 16:01:58;;;;;;;2.17;1.17;;;;;;;;;;10292481;28;20086;-78
2024/03/15 16:06:59;;;;;;;5.60;1.52;;;;;;;;;;10309427;28;20022;-78
2024/03/15 16:12:00;;;;;;;2.15;1.02;;;;;;;;;;10293065;28;20121;-78
2024/03/15 16:17:01;;;;;;;3.03;1.05;;;;;;;;;;10314617;28;20027;-77
2024/03/15 16:22:03;;;;;;;1.90;1.00;;;;;;;;;;10309760;28;20496;-78
2024/03/15 16:27:04;;;;;;;2.83;1.00;;;;;;;;;;10291410;28;20499;-77
2024/03/15 16:32:07;;;;;;;3.28;0.93;;;;;;;;;;10291308;28;20058;-78
2024/03/15 16:37:09;;;;;;;2.05;1.00;;;;;;;;;;10305622;28;20478;-77
2024/03/15 16:42:12;;;;;;;3.78;1.20;;;;;;;;;;10310945;28;20129;-77
2024/03/15 16:47:14;;;;;;;4.45;1.90;;;;;;;;;;10311048;28;20102;-77
2024/03/15 16:52:18;;;;;;;2.65;1.17;;;;;;;;;;10313503;28;20027;-78
2024/03/15 16:57:19;;;;;;;2.20;1.17;;;;;;;;;;10292352;28;20062;-77
2024/03/15 17:02:20;;;;;;;2.25;1.10;;;;;;;;;;10310062;28;20027;-78
2024/03/15 17:07:21;;;;;;;2.97;1.10;;;;;;;;;;10313845;28;20019;-78
2024/03/15 17:12:24;;;;;;;2.53;1.10;;;;;;;;;;10299026;28;20030;-79
2024/03/15 17:17:25;;;;;;;2.25;0.90;;;;;;;;;;10317309;28;20015;-81
2024/03/15 17:22:26;;;;;;;3.83;1.25;;;;;;;;;;10300439;28;20041;-81
2024/03/15 17:27:27;;;;;;;3.70;1.38;;;;;;;;;;10301539;28;20018;-78
2024/03/15 17:32:28;;;;;;;2.65;1.55;;;;;;;;;;10308590;28;20039;-80
2024/03/15 17:37:29;;;;;;;3.10;1.63;;;;;;;;;;10302173;28;20035;-78
2024/03/15 17:42:31;;;;;;;2.65;1.50;;;;;;;;;;10300885;28;20111;-79
2024/03/15 17:47:32;;;;;;;3.88;1.40;;;;;;;;;;10283344;28;20441;-79
2024/03/15 17:52:33;;;;;;;3.40;1.20;;;;;;;;;;10282751;28;20030;-79
2024/03/15 17:57:34;;;;;;;3.05;1.38;;;;;;;;;;10282369;28;20503;-79
2024/03/15 18:02:37;;;;;;;3.67;1.58;;;;;;;;;;10299945;28;20025;-79
2024/03/15 18:07:39;;;;;;;3.35;1.50;;;;;;;;;;10300183;28;20026;-79
2024/03/15 18:12:40;;;;;;;3.60;1.30;;;;;;;;;;10283632;28;20029;-79
2024/03/15 18:17:41;;;;;;;2.65;1.30;;;;;;;;;;10283461;28;20085;-79
2024/03/15 18:22:42;;;;;;;2.47;1.25;;;;;;;;;;10303168;28;20031;-79
2024/03/15 18:27:43;;;;;;;2.60;1.30;;;;;;;;;;10304148;28;20026;-79
2024/03/15 18:32:44;;;;;;;2.45;1.10;;;;;;;;;;10288677;28;20101;-79
2024/03/15 18:37:45;;;;;;;1.75;1.25;;;;;;;;;;10287366;28;20085;-79
2024/03/15 18:42:46;;;;;;;2.38;1.40;;;;;;;;;;10293002;28;20477;-78
2024/03/15 18:47:48;;;;;;;3.67;1.77;;;;;;;;;;10311101;28;20110;-79
2024/03/15 18:52:49;;;;;;;3.58;1.58;;;;;;;;;;10298961;28;20476;-78
2024/03/15 18:57:58;;;;;;;2.88;1.40;;;;;;;;;;10309419;28;20037;-79
2024/03/15 19:03:01;;;;;;;2.22;1.40;;;;;;;;;;10293630;28;20071;-79
2024/03/15 19:08:02;;;;;;;2.35;1.17;;;;;;;;;;10292206;28;20049;-78
2024/03/15 19:13:06;;;;;;;2.25;1.10;;;;;;;;;;10300194;28;20041;-79
2024/03/15 19:18:07;;;;;;;1.98;1.20;;;;;;;;;;10301165;28;20028;-78
2024/03/15 19:23:08;;;;;;;4.72;1.92;;;;;;;;;;10301533;28;20055;-78
2024/03/15 19:28:09;;;;;;;2.03;1.30;;;;;;;;;;10282889;28;20093;-78
2024/03/15 19:33:11;;;;;;;2.80;1.23;;;;;;;;;;10307264;28;20023;-78
2024/03/15 19:38:30;;;;;;;2.85;1.33;;;;;;;;;;10251461;23;20119;-84
2024/03/15 19:55:46;;;;;;;2.57;1.27;;;;;;;;;;10274318;28;20047;-85
